Latest Weather Observations for Rhyll

IDV60801

Issued at 9:32 pm EDT Monday 16 January 2017 (issued every 30 minutes, with the page automatically refreshed every 10 minutes)

About weather observations | Map of weather stations | Latest weather observations for VIC | Other Formats
Station Details ID: 086373 Name: RHYLL Lat: -38.46 Lon: 145.31 Height: 13.4 m
Data from the previous 72 hours. | See also: Recent months at Rhyll
Date/Time
EDT
Temp
°C
App
Temp
°C
Dew
Point
°C
Rel
Hum
%
Delta-T
°C
Wind Press
QNH
hPa
Press
MSL
hPa
Rain since
9am
mm
Dir  Spd
km/h
Gust
km/h
Spd
kts
Gust
kts
16/09:30pm 21.7 22.4 16.0 70 3.4 SSW 7 9 4 5 1010.6 1010.5 0.0
16/09:00pm 21.8 22.8 15.4 67 3.8 SE 4 6 2 3 1010.3 1010.2 0.0
16/08:30pm 22.2 23.0 15.8 67 3.8 SSW 6 7 3 4 1010.4 1010.3 0.0
16/08:00pm 23.2 24.3 14.7 58 5.0 S 2 2 1 1 1010.3 1010.2 0.0
16/07:30pm 23.4 24.3 16.2 64 4.4 SSW 6 9 3 5 1010.5 1010.4 0.0
16/07:00pm 22.6 23.0 15.4 64 4.3 S 7 11 4 6 1010.8 1010.7 0.0
16/06:30pm 23.5 24.0 15.5 60 4.8 S 7 9 4 5 1010.5 1010.4 0.0
16/06:00pm 24.7 25.6 16.7 61 4.9 S 7 11 4 6 1010.9 1010.8 0.0
16/05:30pm 23.4 24.1 16.2 64 4.4 SSE 7 13 4 7 1010.9 1010.8 0.0
16/05:00pm 23.4 23.0 15.2 60 4.9 SSE 11 13 6 7 1011.3 1011.2 0.0
16/04:30pm 23.4 23.0 15.2 60 4.9 SSE 11 13 6 7 1011.7 1011.6 0.0
16/04:00pm 23.4 22.9 14.9 59 5.1 SSE 11 13 6 7 1012.2 1012.1 0.0
16/03:30pm 23.1 23.1 14.1 57 5.3 S 7 13 4 7 1012.6 1012.5 0.0
16/03:00pm 22.5 22.2 13.3 56 5.3 S 7 15 4 8 1013.1 1013.0 0.0
16/02:30pm 22.9 22.9 14.2 58 5.1 S 7 9 4 5 1013.5 1013.4 0.0
16/02:00pm 22.6 22.4 13.7 57 5.2 S 7 11 4 6 1013.9 1013.8 0.0
16/01:30pm 24.5 24.4 14.0 52 6.2 ENE 7 9 4 5 1014.3 1014.2 0.0
16/01:00pm 23.5 22.9 13.4 53 5.9 ENE 9 11 5 6 1014.6 1014.5 0.0
16/12:30pm 23.3 22.6 13.2 53 5.8 E 9 11 5 6 1014.9 1014.8 0.0
16/12:00pm 22.6 22.3 12.8 54 5.6 ENE 6 11 3 6 1014.9 1014.8 0.0
16/11:30am 21.4 19.3 12.5 57 5.0 NE 15 17 8 9 1015.0 1014.9 0.0
16/11:00am 21.5 18.9 12.1 55 5.3 NE 17 20 9 11 1015.4 1015.3 0.0
16/10:30am 19.9 19.5 12.4 62 4.2 NNE 6 7 3 4 1016.0 1015.9 0.0
16/10:00am 18.9 18.2 11.5 62 4.1 NNE 6 9 3 5 1015.9 1015.8 0.0
16/09:30am 16.9 15.8 9.8 63 3.7 N 6 9 3 5 1016.3 1016.2 0.0
16/09:00am 17.1 15.9 11.6 70 3.0 N 9 13 5 7 1016.2 1016.1 0.0
16/08:30am 16.3 15.5 11.7 74 2.5 N 7 13 4 7 1016.3 1016.2 0.0
16/08:00am 15.9 14.8 11.9 77 2.2 N 9 13 5 7 1016.4 1016.3 0.0
16/07:30am 15.2 13.6 11.6 79 1.9 N 11 17 6 9 1016.2 1016.1 0.0
16/07:00am 15.0 13.9 12.0 82 1.6 N 9 17 5 9 1016.2 1016.1 0.0
16/06:30am 14.7 13.6 11.8 83 1.6 NNE 9 15 5 8 1015.9 1015.8 0.0
16/06:00am 14.6 13.4 11.7 83 1.6 N 9 17 5 9 1015.8 1015.7 0.0
16/05:30am 14.4 12.0 11.4 82 1.6 N 15 20 8 11 1015.7 1015.6 0.0
16/05:00am 14.5 12.2 11.8 84 1.5 N 15 19 8 10 1015.6 1015.5 0.0
16/04:30am 15.2 14.8 9.8 70 2.8 WSW 2 2 1 1 1015.4 1015.3 0.0
16/04:00am 15.1 14.9 10.3 73 2.5 WNW 2 4 1 2 1015.2 1015.1 0.0
16/03:30am 15.3 15.0 10.1 71 2.7 WNW 2 2 1 1 1015.2 1015.1 0.0
16/03:00am 15.5 15.2 10.1 70 2.8 W 2 4 1 2 1015.6 1015.5 0.0
16/02:30am 15.3 15.3 9.9 70 2.8 CALM 0 0 0 0 1015.7 1015.6 0.0
16/02:00am 15.2 15.3 10.0 71 2.7 CALM 0 0 0 0 1016.3 1016.2 0.0
16/01:30am 15.4 15.1 10.0 70 2.8 SW 2 2 1 1 1016.6 1016.5 0.0
16/01:00am 15.2 14.9 10.0 71 2.7 WSW 2 6 1 3 1016.9 1016.8 0.0
16/12:30am 15.3 15.0 10.1 71 2.7 WSW 2 4 1 2 1017.2 1017.1 0.0
16/12:00am 15.3 14.9 9.9 70 2.8 WSW 2 4 1 2 1017.4 1017.3 0.0
 
Date/Time
EDT
Temp
°C
App
Temp
°C
Dew
Point
°C
Rel
Hum
%
Delta-T
°C
Wind Press
QNH
hPa
Press
MSL
hPa
Rain since
9am
mm
Dir  Spd
km/h
Gust
km/h
Spd
kts
Gust
kts
15/11:30pm 15.0 14.3 10.0 72 2.6 WSW 4 4 2 2 1017.5 1017.5 0.0
15/11:00pm 14.6 13.9 10.0 74 2.4 WSW 4 6 2 3 1017.5 1017.5 0.0
15/10:30pm 14.9 14.2 10.1 73 2.5 SW 4 6 2 3 1017.7 1017.7 0.0
15/10:00pm 15.0 14.3 10.0 72 2.6 WSW 4 4 2 2 1018.0 1018.0 0.0
15/09:30pm 15.1 14.7 9.9 71 2.7 SW 2 4 1 2 1017.9 1017.9 0.0
15/09:00pm 15.3 14.6 10.1 71 2.7 SW 4 6 2 3 1017.9 1017.9 0.0
15/08:30pm 15.8 14.7 10.1 69 3.0 SSW 6 9 3 5 1017.8 1017.8 0.0
15/08:00pm 16.5 15.2 9.9 65 3.5 S 7 15 4 8 1017.7 1017.7 0.0
15/07:30pm 16.8 15.6 10.4 66 3.4 S 7 17 4 9 1017.7 1017.7 0.0
15/07:00pm 18.0 16.9 10.6 62 4.0 SSW 7 17 4 9 1017.9 1017.9 0.0
15/06:30pm 17.5 15.6 10.4 63 3.8 SSW 11 19 6 10 1017.8 1017.8 0.0
15/06:00pm 19.0 17.4 11.6 62 4.1 S 11 24 6 13 1017.8 1017.8 0.0
15/05:30pm 19.5 18.0 11.8 61 4.3 SSW 11 20 6 11 1017.9 1017.9 0.0
15/05:00pm 19.4 17.4 10.1 55 5.0 S 11 20 6 11 1018.2 1018.2 0.0
15/04:30pm 19.0 16.6 10.0 56 4.8 S 13 22 7 12 1018.3 1018.3 0.0
15/04:00pm 19.6 17.1 10.9 57 4.7 SW 15 24 8 13 1018.3 1018.3 0.0
15/03:30pm 18.6 15.6 9.1 54 5.0 SW 15 26 8 14 1018.5 1018.5 0.0
15/03:00pm 18.0 14.8 8.6 54 4.8 SW 15 22 8 12 1018.9 1018.9 0.0
15/02:30pm 18.1 15.5 9.2 56 4.7 SW 13 20 7 11 1018.8 1018.8 0.0
15/02:00pm 18.1 15.9 9.2 56 4.6 SW 11 22 6 12 1018.9 1018.9 0.0
15/01:30pm 17.5 15.2 8.9 57 4.5 WSW 11 22 6 12 1019.1 1019.1 0.0
15/01:00pm 17.4 15.0 8.8 57 4.4 WSW 11 22 6 12 1019.1 1019.1 0.0
15/12:30pm 17.5 15.3 9.4 59 4.2 SW 11 22 6 12 1018.9 1018.9 0.0
15/12:00pm 17.5 14.9 9.4 59 4.2 SW 13 22 7 12 1018.9 1018.9 0.0
15/11:30am 17.7 16.2 9.3 58 4.4 WSW 7 15 4 8 1018.8 1018.8 0.0
15/11:00am 17.3 15.2 9.7 61 4.0 WSW 11 22 6 12 1018.8 1018.8 0.0
15/10:30am 17.0 14.9 8.4 57 4.4 WSW 9 15 5 8 1019.0 1019.0 0.0
15/10:00am 16.8 13.9 8.2 57 4.4 SW 13 20 7 11 1018.8 1018.8 0.0
15/09:30am 16.4 14.6 8.1 58 4.2 WSW 7 15 4 8 1018.7 1018.7 0.0
15/09:00am 16.2 14.6 7.9 58 4.2 WSW 6 11 3 6 1018.6 1018.6 0.4
15/08:30am 15.6 12.6 7.6 59 4.0 SW 13 19 7 10 1018.4 1018.4 0.4
15/08:00am 15.4 13.2 7.7 60 3.8 SW 9 15 5 8 1018.1 1018.1 0.4
15/07:30am 15.3 13.4 7.6 60 3.8 SW 7 11 4 6 1017.8 1017.8 0.4
15/07:00am 15.3 12.6 7.3 59 3.9 SW 11 20 6 11 1017.5 1017.5 0.4
15/06:30am 15.3 13.0 7.6 60 3.8 WSW 9 17 5 9 1017.3 1017.2 0.4
15/06:00am 15.3 13.7 8.8 65 3.3 SW 7 15 4 8 1016.8 1016.7 0.4
15/05:30am 15.2 13.5 8.4 64 3.4 WSW 7 17 4 9 1016.6 1016.5 0.4
15/05:00am 15.1 13.3 7.9 62 3.6 WSW 7 13 4 7 1016.4 1016.3 0.4
15/04:30am 15.3 13.0 7.3 59 4.0 WSW 9 15 5 8 1016.2 1016.1 0.4
15/04:00am 15.2 12.8 7.0 58 4.0 WSW 9 19 5 10 1016.0 1015.9 0.4
15/03:30am 15.3 12.5 6.8 57 4.2 WSW 11 20 6 11 1015.7 1015.6 0.4
15/03:00am 15.4 11.8 6.9 57 4.2 SW 15 24 8 13 1015.8 1015.7 0.4
15/02:30am 15.6 12.3 7.9 60 3.9 SW 15 26 8 14 1015.8 1015.7 0.4
15/02:00am 15.7 13.0 7.2 57 4.2 SW 11 20 6 11 1015.9 1015.8 0.4
15/01:30am 15.8 12.7 8.8 63 3.6 SW 15 24 8 13 1016.0 1015.9 0.4
15/01:00am 15.8 13.1 7.3 57 4.2 WSW 11 22 6 12 1016.1 1016.0 0.4
15/12:30am 16.0 12.2 7.5 57 4.2 SW 17 33 9 18 1015.9 1015.8 0.4
15/12:00am 15.9 12.5 7.7 58 4.1 SW 15 28 8 15 1016.0 1015.9 0.4
 
Date/Time
EDT
Temp
°C
App
Temp
°C
Dew
Point
°C
Rel
Hum
%
Delta-T
°C
Wind Press
QNH
hPa
Press
MSL
hPa
Rain since
9am
mm
Dir  Spd
km/h
Gust
km/h
Spd
kts
Gust
kts
14/11:30pm 15.8 12.7 7.1 56 4.3 WSW 13 24 7 13 1015.8 1015.7 0.4
14/11:00pm 16.1 12.1 8.1 59 4.0 SW 19 35 10 19 1015.7 1015.6 0.4
14/10:30pm 16.1 12.6 8.6 61 3.8 SW 17 30 9 16 1015.6 1015.5 0.4
14/10:00pm 15.8 12.6 8.5 62 3.7 SW 15 24 8 13 1015.4 1015.3 0.4
14/09:30pm 16.1 12.4 9.3 64 3.5 SW 19 30 10 16 1014.9 1014.8 0.4
14/09:00pm 16.0 12.2 9.0 63 3.6 WSW 19 33 10 18 1014.6 1014.5 0.4
14/08:30pm 15.8 12.0 9.9 68 3.1 WSW 20 37 11 20 1014.4 1014.3 0.4
14/08:00pm 16.8 12.2 9.5 62 3.8 SW 24 37 13 20 1013.8 1013.7 0.4
14/07:30pm 17.6 12.7 10.0 61 4.0 WSW 26 41 14 22 1013.3 1013.2 0.4
14/07:00pm 17.5 13.9 10.6 64 3.7 WSW 20 39 11 21 1013.0 1012.9 0.4
14/06:30pm 17.9 13.7 11.0 64 3.7 WSW 24 44 13 24 1012.7 1012.6 0.4
14/06:00pm 18.4 13.8 11.0 62 4.0 WSW 26 43 14 23 1012.2 1012.1 0.4
14/05:30pm 18.1 13.0 10.7 62 4.0 WSW 28 48 15 26 1012.0 1011.9 0.4
14/05:00pm 19.4 14.1 11.4 60 4.4 WSW 30 54 16 29 1011.6 1011.5 0.4
14/04:47pm 18.5 13.4 10.6 60 4.3 WSW 28 52 15 28 1011.5 1011.4 0.4
14/04:30pm 19.0 15.3 11.6 62 4.1 WSW 22 50 12 27 1011.3 1011.2 0.4
14/04:00pm 19.3 14.3 11.1 59 4.5 WSW 28 48 15 26 1011.1 1011.0 0.4
14/03:32pm 19.1 14.0 10.6 58 4.6 WSW 28 52 15 28 1010.8 1010.7 0.4
14/03:30pm 19.9 15.5 11.7 59 4.5 WSW 26 46 14 25 1010.7 1010.6 0.4
14/03:11pm 19.3 14.2 10.6 57 4.7 WSW 28 46 15 25 1010.4 1010.3 0.4
14/03:00pm 19.7 15.1 11.2 58 4.7 W 26 44 14 24 1010.3 1010.2 0.4
14/02:33pm 19.1 13.9 10.4 57 4.7 WSW 28 46 15 25 1010.1 1010.0 0.4
14/02:30pm 19.3 14.6 10.6 57 4.7 WSW 26 43 14 23 1010.1 1010.0 0.4
14/02:09pm 19.9 14.5 9.5 51 5.5 W 28 46 15 25 1009.8 1009.7 0.4
14/02:00pm 18.9 14.7 11.0 60 4.3 W 24 48 13 26 1009.8 1009.7 0.4
14/01:30pm 17.3 14.1 11.8 70 3.0 W 20 39 11 21 1009.8 1009.7 0.4
14/01:00pm 19.5 15.9 10.5 56 4.9 W 20 37 11 20 1009.3 1009.2 0.2
14/12:30pm 17.5 14.3 11.1 66 3.5 WSW 19 33 10 18 1009.0 1008.9 0.2
14/12:00pm 18.4 16.7 12.6 69 3.2 W 13 26 7 14 1008.4 1008.3 0.2
14/11:30am 17.4 14.5 9.6 60 4.1 W 15 30 8 16 1008.1 1008.0 0.0
14/11:00am 17.8 14.4 9.2 57 4.5 W 17 30 9 16 1007.5 1007.4 0.0
14/10:30am 18.7 15.5 10.0 57 4.6 WNW 17 35 9 19 1007.1 1007.0 0.0
14/10:00am 17.2 14.2 10.6 65 3.5 W 17 37 9 20 1007.3 1007.2 0.0
14/09:30am 16.9 14.6 10.3 65 3.5 WNW 13 32 7 17 1007.1 1007.0 0.0
14/09:00am 16.8 14.5 10.6 67 3.3 WNW 13 28 7 15 1006.8 1006.7 8.8
14/08:30am 16.6 14.4 10.7 68 3.1 WNW 13 24 7 13 1006.5 1006.4 8.8
14/08:00am 17.0 14.4 10.6 66 3.4 WNW 15 26 8 14 1005.9 1005.8 8.8
14/07:30am 16.3 13.2 10.2 67 3.2 W 17 32 9 17 1005.5 1005.4 8.8
14/07:00am 16.1 13.4 10.2 68 3.1 WNW 15 32 8 17 1005.2 1005.1 8.8
14/06:30am 15.5 13.6 10.5 72 2.6 WNW 11 20 6 11 1004.5 1004.4 8.8
14/06:00am 15.7 13.0 10.2 70 2.9 W 15 33 8 18 1004.3 1004.2 8.8
14/05:30am 15.8 13.1 10.3 70 2.9 W 15 30 8 16 1004.2 1004.1 8.8
14/05:00am 15.8 13.5 10.3 70 2.9 WNW 13 24 7 13 1003.7 1003.6 8.8
14/04:30am 16.0 12.7 9.7 66 3.3 W 17 28 9 15 1003.6 1003.5 8.8
14/04:00am 16.2 13.0 9.8 66 3.4 WNW 17 28 9 15 1003.4 1003.3 8.8
14/03:30am 16.6 14.2 10.2 66 3.4 W 13 32 7 17 1003.2 1003.1 8.8
14/03:00am 16.7 13.4 9.6 63 3.7 W 17 30 9 16 1003.5 1003.4 8.8
14/02:30am 17.0 13.3 9.4 61 4.0 W 19 30 10 16 1003.5 1003.4 8.8
14/02:00am 17.0 13.6 9.2 60 4.1 W 17 32 9 17 1003.5 1003.4 8.8
14/01:30am 17.0 13.4 9.7 62 3.8 W 19 28 10 15 1003.6 1003.5 8.8
14/01:00am 17.0 14.4 9.4 61 4.0 W 13 22 7 12 1003.5 1003.4 8.8
14/12:30am 16.9 14.8 9.8 63 3.7 W 11 20 6 11 1003.4 1003.3 8.8
14/12:00am 17.3 14.7 9.5 60 4.1 W 13 22 7 12 1003.4 1003.3 8.8
 
Date/Time
EDT
Temp
°C
App
Temp
°C
Dew
Point
°C
Rel
Hum
%
Delta-T
°C
Wind Press
QNH
hPa
Press
MSL
hPa
Rain since
9am
mm
Dir  Spd
km/h
Gust
km/h
Spd
kts
Gust
kts
13/11:30pm 17.5 14.5 9.2 58 4.3 W 15 32 8 17 1003.3 1003.2 8.8
13/11:00pm 17.6 15.0 9.2 58 4.4 W 13 22 7 12 1003.4 1003.3 8.8
13/10:30pm 17.6 15.7 9.2 58 4.4 W 9 19 5 10 1003.4 1003.3 8.8
13/10:00pm 17.9 15.3 9.5 58 4.4 W 13 20 7 11 1003.2 1003.1 8.8

Other Formats:

Comma delimited format used in spreadsheet applications
http://www.bom.gov.au/fwo/IDV60801/IDV60801.94892.axf

JavaScript Object Notation format (JSON) in row-major order
http://www.bom.gov.au/fwo/IDV60801/IDV60801.94892.json